Share

Mammoth Cave National Park, KY

WNKY NBC & CBS 40 Weather (KKYBOWLI9) Elev 538 ft | 36.97 °N, 86.47 °W | Change Station

Current weather conditions updated 2 seconds ago

Clear
Clear
50.0 °F
Feels Like 50.0 °F
N
0.0
Wind Variable Wind from NW
Gusts 0.0 mph
Sunrise 6:06 AM
Sunset 7:24 PM
Moon Waning Gibbous

Today is forecast to be nearly the same temperature as yesterday.

Pressure 30.21 in
Visibility 8.0 miles
Clouds Clear
Dew Point 43 °F
Humidity 77%
Rainfall 0.00 in
Snow Depth Not available.
UV 0 out of 16
Pollen 9.80 out of 12
Air Quality Not available.
Flu Activity Sporadic
METAR KBWG 191053Z AUTO 00000KT 8SM CLR 07/06 A3021 RMK AO2 SLP230 T00720061

More Conditions Fewer Conditions

Pressure 30.21 in
Visibility 8.0 miles
Clouds Clear
Dew Point 43 °F
Humidity 77%
Rainfall 0.00 in
Snow Depth Not available.
UV 0 out of 16
Pollen 9.80 out of 12
Air Quality Not available.
Flu Activity Sporadic
METAR KBWG 191053Z AUTO 00000KT 8SM CLR 07/06 A3021 RMK AO2 SLP230 T00720061

More Conditions Fewer Conditions

10-Day Weather Forecast

Almanac

Astronomy

Apr. 19, 2014 Rise Set
Actual Time 6:06 AM CDT 7:24 PM CDT
Civil Twilight 5:39 AM CDT 7:51 PM CDT
Nautical Twilight 5:06 AM CDT 8:23 PM CDT
Astronomical Twilight 4:33 AM CDT 8:57 PM CDT
Moon No Moon Rise 9:27 AM CDT
Length of Visible Light 14h 12m
Length of Day
13h 18m
Tomorrow will be 2m 12s longer.
Waning Gibbous, 80% of the Moon is Illuminated
Today
Waning Gibbous
Apr 22
Last Quarter
Apr 29
New
May 6
First Quarter
May 14
Full

Today's Extremes

State Highs State Lows

Community

  • Bleeding Hearts
    Bleeding Hearts
  • Sunset Silhouettes
    Sunset Silhouettes
  • FL sunset Perico Isle
    FL sunset Perico Isle
  • Cloudy spring view
    Cloudy spring view
  • Old barn
    Old barn

WunderPhotos

Upload Photos

1,702,700 photos uploaded!

Nearby

Snow Depth

Station Depth Elevation
No new snow has been reported.

Coastal Water Temperatures

Place Temperature
No Stations Reporting

Earthquake Activity

City Distance Mag. Time & Date
Englewood, Tennessee 155 miles 2.8 9:34 PM CDT
2014-04-12
Minimum magnitude displayed is 2.5.

Nearby Weather Stations

Station Location Temp. Windchill Dew Point Humidity Wind Precip. Elev Updated Type
WNKY NBC & CBS 40 Weather, Bowling Green, KY 50.0 °F - 43 °F 77% NW  at  0.0 mph 0.00 in / hr 538 ft 7:13 AM CDT Rapid Fire
Plano, Bowling Green, KY 49.4 °F 49 °F 49 °F 97% North  at  0.0 mph 0.00 in / hr 616 ft 7:13 AM CDT Rapid Fire
RAWS HOUCHIN MEADOW KY, Rocky Hill, KY 49 °F 48 °F 39 °F 69% NNE  at  4 mph 0.00 in / hr 773 ft 6:12 AM CDT MADIS
Al Bedel Road, Auburn, KY 47.6 °F 48 °F 46 °F 93% SE  at  0.0 mph 0.00 in / hr 650 ft 7:10 AM CDT Normal

Show More Stations Show Fewer Stations

What do you think?

We're not finished. Please let us know what you like, what you don't like, and what you are still missing.